sensor_id;sensor_type;location;lat;lon;timestamp;pressure;altitude;pressure_sealevel;temperature;humidity
10510;BME280;5303;53.266;10.410;2022-11-20T00:01:49;100956.69;;;2.83;100.00
10510;BME280;5303;53.266;10.410;2022-11-20T00:04:17;100954.09;;;2.82;100.00
10510;BME280;5303;53.266;10.410;2022-11-20T00:06:42;100956.41;;;2.75;100.00
10510;BME280;5303;53.266;10.410;2022-11-20T00:09:09;100954.31;;;2.78;100.00
10510;BME280;5303;53.266;10.410;2022-11-20T00:11:35;100961.69;;;2.76;100.00
10510;BME280;5303;53.266;10.410;2022-11-20T00:14:01;100954.56;;;2.75;100.00
10510;BME280;5303;53.266;10.410;2022-11-20T00:16:28;100959.59;;;2.80;100.00
10510;BME280;5303;53.266;10.410;2022-11-20T00:18:55;100959.69;;;2.78;100.00
10510;BME280;5303;53.266;10.410;2022-11-20T00:21:25;100958.19;;;2.63;100.00
10510;BME280;5303;53.266;10.410;2022-11-20T00:23:54;100962.88;;;2.72;100.00
10510;BME280;5303;53.266;10.410;2022-11-20T00:26:20;100957.94;;;2.55;100.00
10510;BME280;5303;53.266;10.410;2022-11-20T00:28:52;100953.78;;;2.51;100.00
10510;BME280;5303;53.266;10.410;2022-11-20T00:31:18;100954.50;;;2.53;100.00
10510;BME280;5303;53.266;10.410;2022-11-20T00:33:44;100961.38;;;2.57;100.00
10510;BME280;5303;53.266;10.410;2022-11-20T00:36:17;100955.25;;;2.55;100.00
10510;BME280;5303;53.266;10.410;2022-11-20T00:38:43;100959.03;;;2.52;100.00
10510;BME280;5303;53.266;10.410;2022-11-20T00:41:12;100956.00;;;2.57;100.00
10510;BME280;5303;53.266;10.410;2022-11-20T00:43:38;100953.69;;;2.64;100.00
10510;BME280;5303;53.266;10.410;2022-11-20T00:46:09;100948.56;;;2.61;100.00
10510;BME280;5303;53.266;10.410;2022-11-20T00:48:35;100948.94;;;2.67;100.00
10510;BME280;5303;53.266;10.410;2022-11-20T00:51:00;100952.56;;;2.55;100.00
10510;BME280;5303;53.266;10.410;2022-11-20T00:53:26;100953.56;;;2.54;100.00
10510;BME280;5303;53.266;10.410;2022-11-20T00:56:00;100946.09;;;2.58;100.00
10510;BME280;5303;53.266;10.410;2022-11-20T00:58:30;100948.78;;;2.58;100.00
10510;BME280;5303;53.266;10.410;2022-11-20T01:01:06;100954.13;;;2.46;100.00
10510;BME280;5303;53.266;10.410;2022-11-20T01:03:33;100949.50;;;2.48;100.00
10510;BME280;5303;53.266;10.410;2022-11-20T01:06:00;100953.91;;;2.49;100.00
10510;BME280;5303;53.266;10.410;2022-11-20T01:08:29;100954.78;;;2.61;100.00
10510;BME280;5303;53.266;10.410;2022-11-20T01:11:02;100959.19;;;2.62;100.00
10510;BME280;5303;53.266;10.410;2022-11-20T01:13:29;100951.13;;;2.62;100.00
10510;BME280;5303;53.266;10.410;2022-11-20T01:18:39;100949.50;;;2.60;100.00
10510;BME280;5303;53.266;10.410;2022-11-20T01:21:10;100945.97;;;2.59;100.00
10510;BME280;5303;53.266;10.410;2022-11-20T01:23:39;100941.69;;;2.45;100.00
10510;BME280;5303;53.266;10.410;2022-11-20T01:26:09;100950.81;;;2.43;100.00
10510;BME280;5303;53.266;10.410;2022-11-20T01:28:34;100948.38;;;2.40;100.00
10510;BME280;5303;53.266;10.410;2022-11-20T01:31:00;100947.53;;;2.39;100.00
10510;BME280;5303;53.266;10.410;2022-11-20T01:33:26;100940.53;;;2.37;100.00
10510;BME280;5303;53.266;10.410;2022-11-20T01:35:52;100940.91;;;2.32;100.00
10510;BME280;5303;53.266;10.410;2022-11-20T01:38:18;100938.84;;;2.36;100.00
10510;BME280;5303;53.266;10.410;2022-11-20T01:40:45;100933.19;;;2.27;100.00
10510;BME280;5303;53.266;10.410;2022-11-20T01:43:17;100919.34;;;2.21;100.00
10510;BME280;5303;53.266;10.410;2022-11-20T01:46:02;100918.03;;;2.26;100.00
10510;BME280;5303;53.266;10.410;2022-11-20T01:48:40;100911.56;;;2.29;100.00
10510;BME280;5303;53.266;10.410;2022-11-20T01:51:13;100905.81;;;2.22;100.00
10510;BME280;5303;53.266;10.410;2022-11-20T01:53:41;100909.44;;;2.21;100.00
10510;BME280;5303;53.266;10.410;2022-11-20T01:56:10;100901.16;;;2.24;100.00
10510;BME280;5303;53.266;10.410;2022-11-20T01:58:40;100900.53;;;2.21;100.00
10510;BME280;5303;53.266;10.410;2022-11-20T02:01:07;100905.56;;;2.25;100.00
10510;BME280;5303;53.266;10.410;2022-11-20T02:03:32;100897.47;;;2.14;100.00
10510;BME280;5303;53.266;10.410;2022-11-20T02:06:19;100899.19;;;2.15;100.00
10510;BME280;5303;53.266;10.410;2022-11-20T02:08:46;100905.03;;;2.09;100.00
10510;BME280;5303;53.266;10.410;2022-11-20T02:11:11;100894.13;;;1.99;100.00
10510;BME280;5303;53.266;10.410;2022-11-20T02:13:38;100895.94;;;1.99;100.00
10510;BME280;5303;53.266;10.410;2022-11-20T02:16:13;100901.22;;;2.00;100.00
10510;BME280;5303;53.266;10.410;2022-11-20T02:18:39;100903.28;;;1.97;100.00
10510;BME280;5303;53.266;10.410;2022-11-20T02:21:09;100902.19;;;1.99;100.00
10510;BME280;5303;53.266;10.410;2022-11-20T02:23:52;100894.38;;;1.96;100.00
10510;BME280;5303;53.266;10.410;2022-11-20T02:26:19;100888.00;;;1.97;100.00
10510;BME280;5303;53.266;10.410;2022-11-20T02:28:46;100887.25;;;1.95;100.00
10510;BME280;5303;53.266;10.410;2022-11-20T02:31:11;100883.47;;;1.86;100.00
10510;BME280;5303;53.266;10.410;2022-11-20T02:33:36;100884.16;;;1.77;100.00
10510;BME280;5303;53.266;10.410;2022-11-20T02:36:02;100880.88;;;1.85;100.00
10510;BME280;5303;53.266;10.410;2022-11-20T02:38:27;100874.41;;;1.88;100.00
10510;BME280;5303;53.266;10.410;2022-11-20T02:40:53;100878.19;;;1.85;100.00
10510;BME280;5303;53.266;10.410;2022-11-20T02:43:18;100872.72;;;1.86;100.00
10510;BME280;5303;53.266;10.410;2022-11-20T02:45:43;100867.97;;;1.90;100.00
10510;BME280;5303;53.266;10.410;2022-11-20T02:48:08;100873.56;;;1.87;100.00
10510;BME280;5303;53.266;10.410;2022-11-20T02:50:37;100871.28;;;1.94;100.00
10510;BME280;5303;53.266;10.410;2022-11-20T02:53:02;100876.03;;;1.90;100.00
10510;BME280;5303;53.266;10.410;2022-11-20T02:55:28;100879.56;;;1.91;100.00
10510;BME280;5303;53.266;10.410;2022-11-20T02:57:53;100874.69;;;1.96;100.00
10510;BME280;5303;53.266;10.410;2022-11-20T03:00:18;100880.06;;;1.96;100.00
10510;BME280;5303;53.266;10.410;2022-11-20T03:02:44;100868.97;;;2.00;100.00
10510;BME280;5303;53.266;10.410;2022-11-20T03:05:09;100874.84;;;2.05;100.00
10510;BME280;5303;53.266;10.410;2022-11-20T03:07:34;100879.25;;;2.06;100.00
10510;BME280;5303;53.266;10.410;2022-11-20T03:10:00;100870.06;;;1.98;100.00
10510;BME280;5303;53.266;10.410;2022-11-20T03:12:25;100862.53;;;2.03;100.00
10510;BME280;5303;53.266;10.410;2022-11-20T03:14:50;100859.59;;;2.06;100.00
10510;BME280;5303;53.266;10.410;2022-11-20T03:17:16;100866.91;;;2.04;100.00
10510;BME280;5303;53.266;10.410;2022-11-20T03:19:41;100869.47;;;2.05;100.00
10510;BME280;5303;53.266;10.410;2022-11-20T03:22:06;100866.38;;;1.99;100.00
10510;BME280;5303;53.266;10.410;2022-11-20T03:24:31;100859.59;;;2.06;100.00
10510;BME280;5303;53.266;10.410;2022-11-20T03:26:57;100866.06;;;2.03;100.00
10510;BME280;5303;53.266;10.410;2022-11-20T03:29:22;100862.16;;;2.07;100.00
10510;BME280;5303;53.266;10.410;2022-11-20T03:31:47;100855.31;;;2.03;100.00
10510;BME280;5303;53.266;10.410;2022-11-20T03:34:12;100853.00;;;2.10;100.00
10510;BME280;5303;53.266;10.410;2022-11-20T03:36:39;100852.78;;;2.13;100.00
10510;BME280;5303;53.266;10.410;2022-11-20T03:39:06;100854.84;;;2.21;100.00
10510;BME280;5303;53.266;10.410;2022-11-20T03:41:36;100846.19;;;2.17;100.00
10510;BME280;5303;53.266;10.410;2022-11-20T03:44:04;100848.75;;;2.19;100.00
10510;BME280;5303;53.266;10.410;2022-11-20T03:46:30;100842.88;;;2.14;100.00
10510;BME280;5303;53.266;10.410;2022-11-20T03:48:56;100844.47;;;2.16;100.00
10510;BME280;5303;53.266;10.410;2022-11-20T03:51:24;100849.22;;;2.13;100.00
10510;BME280;5303;53.266;10.410;2022-11-20T03:53:51;100843.72;;;2.14;100.00
10510;BME280;5303;53.266;10.410;2022-11-20T03:56:18;100840.81;;;2.17;100.00
10510;BME280;5303;53.266;10.410;2022-11-20T03:58:44;100846.69;;;2.22;100.00
10510;BME280;5303;53.266;10.410;2022-11-20T04:01:16;100840.41;;;2.10;100.00
10510;BME280;5303;53.266;10.410;2022-11-20T04:03:42;100834.44;;;2.18;100.00
10510;BME280;5303;53.266;10.410;2022-11-20T04:06:13;100840.56;;;2.09;100.00
10510;BME280;5303;53.266;10.410;2022-11-20T04:08:40;100835.41;;;2.06;100.00
10510;BME280;5303;53.266;10.410;2022-11-20T04:11:09;100837.00;;;2.08;100.00
10510;BME280;5303;53.266;10.410;2022-11-20T04:13:34;100832.03;;;2.15;100.00
10510;BME280;5303;53.266;10.410;2022-11-20T04:15:59;100837.25;;;2.17;100.00
10510;BME280;5303;53.266;10.410;2022-11-20T04:18:25;100835.31;;;2.19;100.00
10510;BME280;5303;53.266;10.410;2022-11-20T04:20:50;100838.97;;;2.18;100.00
10510;BME280;5303;53.266;10.410;2022-11-20T04:23:15;100831.88;;;2.17;100.00
10510;BME280;5303;53.266;10.410;2022-11-20T04:25:40;100838.34;;;2.14;100.00
10510;BME280;5303;53.266;10.410;2022-11-20T04:28:06;100836.50;;;2.15;100.00
10510;BME280;5303;53.266;10.410;2022-11-20T04:30:31;100831.13;;;2.03;100.00
10510;BME280;5303;53.266;10.410;2022-11-20T04:32:56;100840.41;;;2.10;100.00
10510;BME280;5303;53.266;10.410;2022-11-20T04:35:21;100831.28;;;2.13;100.00
10510;BME280;5303;53.266;10.410;2022-11-20T04:37:47;100826.66;;;2.15;100.00
10510;BME280;5303;53.266;10.410;2022-11-20T04:40:12;100824.66;;;2.06;100.00
10510;BME280;5303;53.266;10.410;2022-11-20T04:42:37;100825.06;;;2.13;100.00
10510;BME280;5303;53.266;10.410;2022-11-20T04:45:04;100820.00;;;2.08;100.00
10510;BME280;5303;53.266;10.410;2022-11-20T04:47:30;100815.78;;;2.17;100.00
10510;BME280;5303;53.266;10.410;2022-11-20T04:49:55;100815.16;;;2.13;100.00
10510;BME280;5303;53.266;10.410;2022-11-20T04:52:20;100818.31;;;2.18;100.00
10510;BME280;5303;53.266;10.410;2022-11-20T04:54:45;100810.53;;;2.15;100.00
10510;BME280;5303;53.266;10.410;2022-11-20T04:57:12;100817.22;;;2.09;100.00
10510;BME280;5303;53.266;10.410;2022-11-20T04:59:38;100811.63;;;2.13;100.00
10510;BME280;5303;53.266;10.410;2022-11-20T05:02:03;100820.00;;;2.08;100.00
10510;BME280;5303;53.266;10.410;2022-11-20T05:04:28;100812.19;;;2.05;100.00
10510;BME280;5303;53.266;10.410;2022-11-20T05:06:53;100810.13;;;2.08;100.00
10510;BME280;5303;53.266;10.410;2022-11-20T05:09:19;100809.41;;;2.06;100.00
10510;BME280;5303;53.266;10.410;2022-11-20T05:11:44;100808.06;;;2.12;100.00
10510;BME280;5303;53.266;10.410;2022-11-20T05:14:09;100807.84;;;2.15;100.00
10510;BME280;5303;53.266;10.410;2022-11-20T05:16:34;100809.66;;;2.15;100.00
10510;BME280;5303;53.266;10.410;2022-11-20T05:19:01;100804.28;;;2.15;100.00
10510;BME280;5303;53.266;10.410;2022-11-20T05:21:26;100799.28;;;2.10;100.00
10510;BME280;5303;53.266;10.410;2022-11-20T05:23:52;100805.25;;;2.14;100.00
10510;BME280;5303;53.266;10.410;2022-11-20T05:26:20;100802.47;;;2.15;100.00
10510;BME280;5303;53.266;10.410;2022-11-20T05:28:47;100810.25;;;2.18;100.00
10510;BME280;5303;53.266;10.410;2022-11-20T05:31:15;100807.47;;;2.20;100.00
10510;BME280;5303;53.266;10.410;2022-11-20T05:33:42;100799.53;;;2.29;100.00
10510;BME280;5303;53.266;10.410;2022-11-20T05:36:08;100808.94;;;2.24;100.00
10510;BME280;5303;53.266;10.410;2022-11-20T05:38:34;100802.84;;;2.33;100.00
10510;BME280;5303;53.266;10.410;2022-11-20T05:41:07;100797.38;;;2.35;100.00
10510;BME280;5303;53.266;10.410;2022-11-20T05:43:34;100801.13;;;2.32;100.00
10510;BME280;5303;53.266;10.410;2022-11-20T05:46:01;100796.38;;;2.36;100.00
10510;BME280;5303;53.266;10.410;2022-11-20T05:48:26;100797.22;;;2.36;100.00
10510;BME280;5303;53.266;10.410;2022-11-20T05:50:51;100789.53;;;2.31;100.00
10510;BME280;5303;53.266;10.410;2022-11-20T05:53:17;100785.63;;;2.36;100.00
10510;BME280;5303;53.266;10.410;2022-11-20T05:55:42;100779.75;;;2.30;100.00
10510;BME280;5303;53.266;10.410;2022-11-20T05:58:07;100777.56;;;2.36;100.00
10510;BME280;5303;53.266;10.410;2022-11-20T06:00:32;100779.25;;;2.37;100.00
10510;BME280;5303;53.266;10.410;2022-11-20T06:02:58;100777.56;;;2.36;100.00
10510;BME280;5303;53.266;10.410;2022-11-20T06:05:23;100772.41;;;2.32;100.00
10510;BME280;5303;53.266;10.410;2022-11-20T06:07:48;100782.94;;;2.36;100.00
10510;BME280;5303;53.266;10.410;2022-11-20T06:10:14;100782.66;;;2.27;100.00
10510;BME280;5303;53.266;10.410;2022-11-20T06:12:39;100779.28;;;2.25;100.00
10510;BME280;5303;53.266;10.410;2022-11-20T06:15:05;100785.72;;;2.23;100.00
10510;BME280;5303;53.266;10.410;2022-11-20T06:17:30;100779.28;;;2.25;100.00
10510;BME280;5303;53.266;10.410;2022-11-20T06:19:56;100775.72;;;2.25;100.00
10510;BME280;5303;53.266;10.410;2022-11-20T06:22:21;100775.84;;;2.23;100.00
10510;BME280;5303;53.266;10.410;2022-11-20T06:24:47;100777.91;;;2.20;100.00
10510;BME280;5303;53.266;10.410;2022-11-20T06:27:12;100781.06;;;2.14;100.00
10510;BME280;5303;53.266;10.410;2022-11-20T06:29:37;100775.44;;;2.05;100.00
10510;BME280;5303;53.266;10.410;2022-11-20T06:32:03;100780.97;;;2.15;100.00
10510;BME280;5303;53.266;10.410;2022-11-20T06:34:28;100785.22;;;2.06;100.00
10510;BME280;5303;53.266;10.410;2022-11-20T06:36:53;100775.31;;;2.07;100.00
10510;BME280;5303;53.266;10.410;2022-11-20T06:39:19;100767.13;;;2.08;100.00
10510;BME280;5303;53.266;10.410;2022-11-20T06:41:44;100781.69;;;2.06;100.00
10510;BME280;5303;53.266;10.410;2022-11-20T06:44:10;100766.28;;;2.08;100.00
10510;BME280;5303;53.266;10.410;2022-11-20T06:46:35;100770.06;;;2.05;100.00
10510;BME280;5303;53.266;10.410;2022-11-20T06:49:00;100759.56;;;2.02;100.00
10510;BME280;5303;53.266;10.410;2022-11-20T06:51:26;100756.75;;;1.93;100.00
10510;BME280;5303;53.266;10.410;2022-11-20T06:53:51;100764.31;;;1.99;100.00
10510;BME280;5303;53.266;10.410;2022-11-20T06:56:16;100754.22;;;2.02;100.00
10510;BME280;5303;53.266;10.410;2022-11-20T06:58:41;100753.31;;;2.02;100.00
10510;BME280;5303;53.266;10.410;2022-11-20T07:01:10;100758.47;;;1.94;100.00
10510;BME280;5303;53.266;10.410;2022-11-20T07:03:36;100748.56;;;2.05;100.00
10510;BME280;5303;53.266;10.410;2022-11-20T07:06:02;100753.47;;;2.00;100.00
10510;BME280;5303;53.266;10.410;2022-11-20T07:08:28;100759.69;;;1.90;100.00
10510;BME280;5303;53.266;10.410;2022-11-20T07:10:57;100754.81;;;2.06;100.00
10510;BME280;5303;53.266;10.410;2022-11-20T07:13:23;100756.63;;;2.05;100.00
10510;BME280;5303;53.266;10.410;2022-11-20T07:15:49;100757.28;;;2.09;100.00
10510;BME280;5303;53.266;10.410;2022-11-20T07:18:14;100754.09;;;2.15;100.00
10510;BME280;5303;53.266;10.410;2022-11-20T07:20:39;100747.13;;;2.13;100.00
10510;BME280;5303;53.266;10.410;2022-11-20T07:23:04;100744.81;;;2.19;100.00
10510;BME280;5303;53.266;10.410;2022-11-20T07:25:30;100747.75;;;2.16;100.00
10510;BME280;5303;53.266;10.410;2022-11-20T07:27:59;100751.53;;;2.14;100.00
10510;BME280;5303;53.266;10.410;2022-11-20T07:30:25;100745.16;;;2.03;100.00
10510;BME280;5303;53.266;10.410;2022-11-20T07:32:52;100750.91;;;2.10;100.00
10510;BME280;5303;53.266;10.410;2022-11-20T07:35:18;100750.78;;;2.12;100.00
10510;BME280;5303;53.266;10.410;2022-11-20T07:37:43;100744.81;;;2.19;100.00
10510;BME280;5303;53.266;10.410;2022-11-20T07:40:14;100744.34;;;2.25;100.00
10510;BME280;5303;53.266;10.410;2022-11-20T07:42:47;100761.41;;;2.24;100.00
10510;BME280;5303;53.266;10.410;2022-11-20T07:45:13;100742.59;;;2.24;100.00
10510;BME280;5303;53.266;10.410;2022-11-20T07:47:38;100742.25;;;2.29;100.00
10510;BME280;5303;53.266;10.410;2022-11-20T07:50:04;100752.63;;;2.33;100.00
10510;BME280;5303;53.266;10.410;2022-11-20T07:52:29;100755.19;;;2.58;100.00
10510;BME280;5303;53.266;10.410;2022-11-20T07:54:55;100750.03;;;2.66;100.00
10510;BME280;5303;53.266;10.410;2022-11-20T07:57:20;100754.06;;;2.71;100.00
10510;BME280;5303;53.266;10.410;2022-11-20T07:59:45;100753.47;;;2.68;100.00
10510;BME280;5303;53.266;10.410;2022-11-20T08:02:11;100755.16;;;2.80;100.00
10510;BME280;5303;53.266;10.410;2022-11-20T08:04:36;100753.69;;;2.76;100.00
10510;BME280;5303;53.266;10.410;2022-11-20T08:07:02;100759.44;;;2.83;100.00
10510;BME280;5303;53.266;10.410;2022-11-20T08:09:27;100750.75;;;2.90;100.00
10510;BME280;5303;53.266;10.410;2022-11-20T08:11:53;100756.38;;;2.87;100.00
10510;BME280;5303;53.266;10.410;2022-11-20T08:14:38;100750.59;;;2.92;100.00
10510;BME280;5303;53.266;10.410;2022-11-20T08:17:03;100746.44;;;2.99;100.00
10510;BME280;5303;53.266;10.410;2022-11-20T08:19:28;100748.88;;;3.02;100.00
10510;BME280;5303;53.266;10.410;2022-11-20T08:21:54;100746.41;;;3.10;100.00
10510;BME280;5303;53.266;10.410;2022-11-20T08:24:20;100737.78;;;2.95;100.00
10510;BME280;5303;53.266;10.410;2022-11-20T08:26:45;100745.38;;;2.90;100.00
10510;BME280;5303;53.266;10.410;2022-11-20T08:29:10;100745.22;;;2.92;100.00
10510;BME280;5303;53.266;10.410;2022-11-20T08:31:36;100744.28;;;2.82;100.00
10510;BME280;5303;53.266;10.410;2022-11-20T08:34:01;100743.41;;;2.81;100.00
10510;BME280;5303;53.266;10.410;2022-11-20T08:36:26;100738.69;;;2.73;100.00
10510;BME280;5303;53.266;10.410;2022-11-20T08:38:54;100748.59;;;2.73;100.00
10510;BME280;5303;53.266;10.410;2022-11-20T08:41:19;100754.78;;;2.85;100.00
10510;BME280;5303;53.266;10.410;2022-11-20T08:43:57;100745.38;;;2.90;100.00
10510;BME280;5303;53.266;10.410;2022-11-20T08:46:28;100750.84;;;3.00;100.00
10510;BME280;5303;53.266;10.410;2022-11-20T08:48:55;100757.47;;;2.96;100.00
10510;BME280;5303;53.266;10.410;2022-11-20T08:51:20;100750.44;;;3.04;100.00
10510;BME280;5303;53.266;10.410;2022-11-20T08:53:46;100752.28;;;3.04;100.00
10510;BME280;5303;53.266;10.410;2022-11-20T08:56:13;100756.72;;;2.94;100.00
10510;BME280;5303;53.266;10.410;2022-11-20T08:58:39;100751.78;;;3.10;100.00
10510;BME280;5303;53.266;10.410;2022-11-20T09:01:04;100746.53;;;3.09;100.00
10510;BME280;5303;53.266;10.410;2022-11-20T09:03:29;100741.00;;;3.21;100.00
10510;BME280;5303;53.266;10.410;2022-11-20T09:06:03;100746.72;;;3.28;100.00
10510;BME280;5303;53.266;10.410;2022-11-20T09:08:29;100742.69;;;3.22;100.00
10510;BME280;5303;53.266;10.410;2022-11-20T09:10:56;100750.63;;;3.24;100.00
10510;BME280;5303;53.266;10.410;2022-11-20T09:13:22;100742.19;;;3.29;100.00
10510;BME280;5303;53.266;10.410;2022-11-20T09:16:03;100747.78;;;3.37;100.00
10510;BME280;5303;53.266;10.410;2022-11-20T09:18:29;100746.59;;;3.30;100.00
10510;BME280;5303;53.266;10.410;2022-11-20T09:20:59;100749.19;;;3.20;100.00
10510;BME280;5303;53.266;10.410;2022-11-20T09:23:25;100748.81;;;3.24;100.00
10510;BME280;5303;53.266;10.410;2022-11-20T09:25:51;100749.25;;;3.41;100.00
10510;BME280;5303;53.266;10.410;2022-11-20T09:28:17;100752.28;;;3.47;100.00
10510;BME280;5303;53.266;10.410;2022-11-20T09:30:43;100752.06;;;3.39;100.00
10510;BME280;5303;53.266;10.410;2022-11-20T09:33:09;100754.63;;;3.41;100.00
10510;BME280;5303;53.266;10.410;2022-11-20T09:35:34;100741.44;;;3.38;100.00
10510;BME280;5303;53.266;10.410;2022-11-20T09:38:05;100748.41;;;3.40;100.00
10510;BME280;5303;53.266;10.410;2022-11-20T09:40:30;100739.69;;;3.37;100.00
10510;BME280;5303;53.266;10.410;2022-11-20T09:48:41;100746.72;;;3.28;100.00
10510;BME280;5303;53.266;10.410;2022-11-20T09:51:21;100739.31;;;3.41;100.00
10510;BME280;5303;53.266;10.410;2022-11-20T09:54:18;100739.31;;;3.41;100.00
10510;BME280;5303;53.266;10.410;2022-11-20T09:56:50;100737.63;;;3.40;100.00
10510;BME280;5303;53.266;10.410;2022-11-20T09:59:26;100732.16;;;3.52;100.00
10510;BME280;5303;53.266;10.410;2022-11-20T10:01:55;100738.16;;;3.55;100.00
10510;BME280;5303;53.266;10.410;2022-11-20T10:04:20;100733.09;;;3.83;100.00
10510;BME280;5303;53.266;10.410;2022-11-20T10:09:31;100731.84;;;3.66;100.00
10510;BME280;5303;53.266;10.410;2022-11-20T10:20:28;100728.56;;;3.83;100.00
10510;BME280;5303;53.266;10.410;2022-11-20T10:25:50;100725.88;;;3.83;100.00
10510;BME280;5303;53.266;10.410;2022-11-20T10:31:04;100727.06;;;3.69;100.00
10510;BME280;5303;53.266;10.410;2022-11-20T10:33:35;100723.13;;;3.73;100.00
10510;BME280;5303;53.266;10.410;2022-11-20T10:38:54;100715.97;;;3.63;100.00
10510;BME280;5303;53.266;10.410;2022-11-20T10:41:26;100714.44;;;3.70;100.00
10510;BME280;5303;53.266;10.410;2022-11-20T10:47:01;100716.81;;;3.63;100.00
10510;BME280;5303;53.266;10.410;2022-11-20T10:49:26;100704.97;;;3.55;100.00
10510;BME280;5303;53.266;10.410;2022-11-20T10:54:42;100704.00;;;3.56;100.00
10510;BME280;5303;53.266;10.410;2022-11-20T10:59:59;100696.50;;;3.59;100.00
10510;BME280;5303;53.266;10.410;2022-11-20T11:07:51;100704.00;;;3.35;100.00
10510;BME280;5303;53.266;10.410;2022-11-20T11:10:53;100697.34;;;3.39;100.00
10510;BME280;5303;53.266;10.410;2022-11-20T11:13:24;100693.41;;;3.43;100.00
10510;BME280;5303;53.266;10.410;2022-11-20T11:15:50;100697.75;;;3.55;100.00
10510;BME280;5303;53.266;10.410;2022-11-20T11:18:32;100693.09;;;3.57;100.00
10510;BME280;5303;53.266;10.410;2022-11-20T11:21:03;100702.56;;;3.72;100.00
10510;BME280;5303;53.266;10.410;2022-11-20T11:23:41;100691.44;;;3.87;100.00
10510;BME280;5303;53.266;10.410;2022-11-20T11:26:21;100693.19;;;3.97;100.00
10510;BME280;5303;53.266;10.410;2022-11-20T11:29:02;100694.91;;;3.99;100.00
10510;BME280;5303;53.266;10.410;2022-11-20T11:31:33;100692.38;;;4.07;100.00
10510;BME280;5303;53.266;10.410;2022-11-20T11:34:14;100690.84;;;4.14;100.00
10510;BME280;5303;53.266;10.410;2022-11-20T11:36:40;100688.78;;;4.17;100.00
10510;BME280;5303;53.266;10.410;2022-11-20T11:39:11;100692.44;;;4.16;100.00
10510;BME280;5303;53.266;10.410;2022-11-20T11:41:39;100694.28;;;4.16;100.00
10510;BME280;5303;53.266;10.410;2022-11-20T11:44:20;100695.00;;;4.18;100.00
10510;BME280;5303;53.266;10.410;2022-11-20T11:47:10;100692.88;;;4.22;100.00
10510;BME280;5303;53.266;10.410;2022-11-20T11:49:36;100688.19;;;4.24;100.00
10510;BME280;5303;53.266;10.410;2022-11-20T11:52:08;100684.91;;;4.20;100.00
10510;BME280;5303;53.266;10.410;2022-11-20T11:54:41;100686.19;;;4.16;100.00
10510;BME280;5303;53.266;10.410;2022-11-20T11:57:26;100678.78;;;4.08;100.00
10510;BME280;5303;53.266;10.410;2022-11-20T12:02:53;100679.63;;;4.09;100.00
10510;BME280;5303;53.266;10.410;2022-11-20T12:10:47;100682.53;;;4.27;100.00
10510;BME280;5303;53.266;10.410;2022-11-20T12:13:28;100675.94;;;4.10;100.00
10510;BME280;5303;53.266;10.410;2022-11-20T12:15:58;100667.06;;;4.19;100.00
10510;BME280;5303;53.266;10.410;2022-11-20T12:18:23;100673.16;;;4.21;100.00
10510;BME280;5303;53.266;10.410;2022-11-20T12:26:39;100658.38;;;4.15;100.00
10510;BME280;5303;53.266;10.410;2022-11-20T12:35:00;100658.34;;;4.06;100.00
10510;BME280;5303;53.266;10.410;2022-11-20T12:40:15;100650.06;;;3.97;100.00
10510;BME280;5303;53.266;10.410;2022-11-20T12:42:52;100644.91;;;3.85;100.00
10510;BME280;5303;53.266;10.410;2022-11-20T12:46:22;100656.88;;;3.92;100.00
10510;BME280;5303;53.266;10.410;2022-11-20T12:54:18;100652.66;;;3.78;100.00
10510;BME280;5303;53.266;10.410;2022-11-20T13:05:34;100647.06;;;3.60;100.00
10510;BME280;5303;53.266;10.410;2022-11-20T13:08:03;100661.50;;;3.59;100.00
10510;BME280;5303;53.266;10.410;2022-11-20T13:10:42;100665.00;;;3.50;100.00
10510;BME280;5303;53.266;10.410;2022-11-20T13:18:51;100654.22;;;3.50;100.00
10510;BME280;5303;53.266;10.410;2022-11-20T13:21:38;100652.03;;;3.65;100.00
10510;BME280;5303;53.266;10.410;2022-11-20T13:24:20;100648.97;;;3.69;100.00
10510;BME280;5303;53.266;10.410;2022-11-20T13:29:29;100645.13;;;3.72;100.00
10510;BME280;5303;53.266;10.410;2022-11-20T13:32:27;100637.22;;;3.80;100.00
10510;BME280;5303;53.266;10.410;2022-11-20T13:35:00;100635.84;;;3.86;100.00
10510;BME280;5303;53.266;10.410;2022-11-20T13:37:27;100633.81;;;3.78;100.00
10510;BME280;5303;53.266;10.410;2022-11-20T13:40:19;100634.06;;;3.75;100.00
10510;BME280;5303;53.266;10.410;2022-11-20T13:42:55;100635.16;;;3.63;100.00
10510;BME280;5303;53.266;10.410;2022-11-20T13:45:26;100642.94;;;3.87;100.00
10510;BME280;5303;53.266;10.410;2022-11-20T13:47:53;100639.47;;;3.75;100.00
10510;BME280;5303;53.266;10.410;2022-11-20T13:50:19;100637.44;;;3.67;100.00
10510;BME280;5303;53.266;10.410;2022-11-20T13:53:28;100640.31;;;3.76;100.00
10510;BME280;5303;53.266;10.410;2022-11-20T13:56:05;100632.78;;;3.69;100.00
10510;BME280;5303;53.266;10.410;2022-11-20T14:01:20;100615.94;;;3.77;100.00
10510;BME280;5303;53.266;10.410;2022-11-20T14:03:47;100617.25;;;3.83;100.00
10510;BME280;5303;53.266;10.410;2022-11-20T14:06:32;100614.38;;;3.74;100.00
10510;BME280;5303;53.266;10.410;2022-11-20T14:08:59;100614.06;;;3.68;100.00
10510;BME280;5303;53.266;10.410;2022-11-20T14:11:27;100611.69;;;3.74;100.00
10510;BME280;5303;53.266;10.410;2022-11-20T14:14:03;100609.66;;;3.67;100.00
10510;BME280;5303;53.266;10.410;2022-11-20T14:16:32;100614.78;;;3.70;100.00
10510;BME280;5303;53.266;10.410;2022-11-20T14:21:44;100613.75;;;3.61;100.00
10510;BME280;5303;53.266;10.410;2022-11-20T14:24:11;100615.91;;;3.46;100.00
10510;BME280;5303;53.266;10.410;2022-11-20T14:26:41;100606.47;;;3.52;100.00
10510;BME280;5303;53.266;10.410;2022-11-20T14:29:22;100620.19;;;3.49;100.00
10510;BME280;5303;53.266;10.410;2022-11-20T14:31:53;100612.03;;;3.39;100.00